Time;durP1;ratioP1;P1;durP2;ratioP2;P2;SDS_P1;SDS_P2;PMS_P1;PMS_P2;Temp;Humidity;BMP_temperature;BMP_pressure;BME280_temperature;BME280_humidity;BME280_pressure;Samples;Min_cycle;Max_cycle;Signal;HPM_P1;HPM_P2
2021/06/12 09:12:48;;;;;;;3.38;3.03;;;28.60;67.20;;;;;;6395908;27;21193;-71
2021/06/12 09:15:52;;;;;;;4.07;3.50;;;28.70;66.40;;;;;;6351418;28;20193;-71
2021/06/12 09:19:12;;;;;;;3.55;3.30;;;28.70;64.80;;;;;;6336473;28;20674;-71
2021/06/12 09:22:26;;;;;;;4.28;3.47;;;28.70;61.70;;;;;;6332348;28;20194;-71
2021/06/12 09:25:37;;;;;;;3.47;2.92;;;28.80;64.50;;;;;;6342586;28;20197;-71
2021/06/12 09:28:53;;;;;;;3.90;3.17;;;29.10;65.80;;;;;;6339761;28;20189;-71
2021/06/12 09:31:55;;;;;;;3.10;2.90;;;29.50;65.80;;;;;;6339174;28;20199;-71
2021/06/12 09:35:07;;;;;;;3.25;2.95;;;29.70;65.40;;;;;;6341314;28;20193;-71
2021/06/12 09:38:42;;;;;;;3.58;2.50;;;29.70;64.20;;;;;;6341252;28;20204;-71
2021/06/12 09:41:55;;;;;;;2.63;2.42;;;29.80;61.90;;;;;;6313096;28;20625;-71
2021/06/12 09:45:04;;;;;;;3.15;2.95;;;29.90;61.70;;;;;;6296013;28;20202;-71
2021/06/12 09:48:16;;;;;;;3.15;2.85;;;30.30;61.80;;;;;;6312959;28;20178;-71
2021/06/12 09:51:18;;;;;;;3.35;2.67;;;30.60;58.40;;;;;;6295372;28;20228;-71
2021/06/12 09:54:36;;;;;;;3.28;2.88;;;30.60;59.50;;;;;;6295989;28;20530;-71
2021/06/12 09:57:50;;;;;;;3.90;3.25;;;30.40;58.40;;;;;;6295329;28;20195;-71
2021/06/12 10:00:52;;;;;;;3.78;2.80;;;30.40;58.90;;;;;;6295484;28;20636;-71
2021/06/12 10:04:12;;;;;;;3.63;3.33;;;30.40;60.30;;;;;;6312593;28;20198;-71
2021/06/12 10:07:14;;;;;;;3.63;3.30;;;30.30;58.50;;;;;;6278683;28;20289;-71
2021/06/12 10:10:16;;;;;;;3.00;2.67;;;30.00;59.40;;;;;;6311971;28;20222;-71
2021/06/12 10:13:19;;;;;;;3.40;3.10;;;29.80;59.40;;;;;;6294724;28;20190;-71
2021/06/12 10:16:23;;;;;;;3.20;3.00;;;30.10;58.90;;;;;;6302890;28;20543;-71
2021/06/12 10:19:27;;;;;;;3.00;2.80;;;30.20;58.90;;;;;;6339389;28;20725;-71
2021/06/12 10:22:29;;;;;;;3.88;3.42;;;30.60;59.50;;;;;;6330396;28;20240;-71
2021/06/12 10:25:31;;;;;;;3.45;3.15;;;30.80;58.20;;;;;;6321964;28;20182;-71
2021/06/12 10:28:34;;;;;;;3.55;3.25;;;30.90;58.80;;;;;;6322875;28;20197;-71
2021/06/12 10:31:42;;;;;;;3.20;3.00;;;30.90;58.60;;;;;;6323071;28;20262;-71
2021/06/12 10:34:45;;;;;;;3.30;3.10;;;31.20;59.00;;;;;;6322446;28;20174;-70
2021/06/12 10:38:08;;;;;;;4.00;3.35;;;31.60;57.50;;;;;;6321461;28;20677;-70
2021/06/12 10:41:26;;;;;;;3.83;3.40;;;31.90;55.80;;;;;;6321594;28;20197;-70
2021/06/12 10:44:28;;;;;;;4.93;3.50;;;32.20;55.60;;;;;;6322416;28;20182;-70
2021/06/12 10:47:37;;;;;;;4.00;3.53;;;32.30;55.30;;;;;;6322763;28;20664;-70
2021/06/12 10:50:43;;;;;;;4.90;4.00;;;32.50;54.70;;;;;;6320519;28;20214;-70
2021/06/12 10:53:52;;;;;;;3.55;3.25;;;32.60;54.30;;;;;;6322614;28;20292;-70
2021/06/12 10:56:59;;;;;;;4.05;3.58;;;32.80;54.20;;;;;;6322185;28;20182;-70
2021/06/12 11:00:04;;;;;;;3.33;3.13;;;33.10;54.70;;;;;;6322796;28;20174;-70
2021/06/12 11:04:13;;;;;;;3.72;3.42;;;33.30;54.40;;;;;;6321128;28;20665;-70
2021/06/12 11:07:23;;;;;;;3.92;3.25;;;33.40;52.90;;;;;;6321181;28;20209;-70
2021/06/12 11:10:26;;;;;;;3.53;3.22;;;33.20;53.20;;;;;;6320314;28;20265;-70
2021/06/12 11:13:28;;;;;;;3.45;3.15;;;33.20;51.90;;;;;;6321505;28;20186;-70
2021/06/12 11:16:30;;;;;;;3.28;2.95;;;33.30;51.20;;;;;;6322221;28;20259;-70
2021/06/12 11:19:34;;;;;;;4.18;2.70;;;33.40;50.70;;;;;;6321348;28;20186;-70
2021/06/12 11:22:54;;;;;;;3.10;2.90;;;33.50;49.90;;;;;;6321950;28;20192;-70
2021/06/12 11:25:58;;;;;;;2.70;2.45;;;33.60;49.30;;;;;;6321884;28;20183;-70
2021/06/12 11:29:09;;;;;;;2.78;2.58;;;33.80;49.10;;;;;;6321209;28;20200;-70
2021/06/12 11:32:27;;;;;;;3.15;2.95;;;34.10;48.80;;;;;;6320042;28;20206;-70
2021/06/12 11:35:43;;;;;;;3.47;3.08;;;34.10;48.20;;;;;;6318906;28;20193;-70
2021/06/12 11:38:49;;;;;;;3.63;3.10;;;34.20;48.60;;;;;;6321516;28;20659;-70
2021/06/12 11:41:52;;;;;;;8.77;4.30;;;34.20;48.90;;;;;;6320922;28;20174;-70
2021/06/12 11:44:54;;;;;;;6.85;4.10;;;33.80;47.90;;;;;;6320150;28;20182;-70
2021/06/12 11:47:58;;;;;;;3.60;2.85;;;33.20;48.80;;;;;;6321336;28;20209;-70
2021/06/12 11:51:16;;;;;;;2.75;2.55;;;32.80;49.50;;;;;;6320644;28;20264;-70
2021/06/12 11:54:24;;;;;;;2.53;2.30;;;32.10;49.70;;;;;;6303051;28;20582;-70
2021/06/12 11:57:46;;;;;;;2.95;1.90;;;31.30;49.60;;;;;;6319295;28;20198;-70
2021/06/12 12:00:48;;;;;;;2.30;2.10;;;30.60;49.40;;;;;;6319476;28;20239;-70
2021/06/12 12:03:51;;;;;;;2.35;2.15;;;29.90;50.70;;;;;;6320492;28;20210;-70
2021/06/12 12:06:57;;;;;;;2.25;1.90;;;29.50;51.00;;;;;;6320928;28;20201;-70
2021/06/12 12:10:00;;;;;;;2.10;2.00;;;29.20;51.60;;;;;;6319113;28;20233;-70
2021/06/12 12:13:04;;;;;;;2.38;2.28;;;29.10;51.90;;;;;;6318848;28;20372;-70
2021/06/12 12:16:19;;;;;;;2.72;2.53;;;29.10;52.60;;;;;;6320407;28;20190;-70
2021/06/12 12:19:22;;;;;;;2.20;2.10;;;29.20;52.90;;;;;;6320206;28;20171;-70
2021/06/12 12:22:35;;;;;;;3.15;2.85;;;29.20;53.50;;;;;;6319031;28;20213;-70
2021/06/12 12:25:37;;;;;;;4.25;2.88;;;29.10;53.50;;;;;;6319962;28;20256;-70
2021/06/12 12:28:54;;;;;;;3.80;3.50;;;29.00;54.30;;;;;;6320327;28;20538;-70
2021/06/12 12:32:00;;;;;;;4.15;3.85;;;28.50;55.20;;;;;;6319996;28;20822;-70
2021/06/12 12:35:16;;;;;;;3.65;3.35;;;28.10;56.90;;;;;;6320169;28;20176;-70
2021/06/12 12:38:22;;;;;;;4.70;4.30;;;27.70;57.90;;;;;;6318786;28;20210;-70
2021/06/12 12:41:26;;;;;;;4.60;3.33;;;27.30;58.60;;;;;;6318314;28;20194;-70
2021/06/12 12:44:29;;;;;;;3.30;3.10;;;26.70;57.60;;;;;;6320109;28;20190;-70
2021/06/12 12:47:32;;;;;;;2.78;2.58;;;26.30;57.90;;;;;;6320001;28;20194;-70
2021/06/12 12:50:35;;;;;;;2.90;2.65;;;26.30;58.30;;;;;;6319425;28;20205;-70
2021/06/12 12:53:40;;;;;;;2.92;2.63;;;26.10;59.40;;;;;;6319953;28;20197;-70
2021/06/12 12:57:08;;;;;;;2.83;2.45;;;26.00;59.10;;;;;;6318157;28;20194;-70
2021/06/12 13:00:23;;;;;;;3.30;2.83;;;25.90;58.60;;;;;;6312710;28;20213;-71
2021/06/12 13:03:25;;;;;;;3.65;2.80;;;25.80;59.20;;;;;;6319870;28;20246;-71
2021/06/12 13:06:33;;;;;;;2.53;2.40;;;25.90;59.90;;;;;;6318455;28;20194;-71
2021/06/12 13:09:37;;;;;;;3.05;2.40;;;26.10;59.60;;;;;;6318173;28;20174;-71
2021/06/12 13:12:52;;;;;;;3.20;2.90;;;26.20;60.80;;;;;;6319055;28;20287;-70
2021/06/12 13:15:57;;;;;;;1.98;1.88;;;26.20;62.00;;;;;;6319538;28;20182;-70
2021/06/12 13:19:15;;;;;;;2.10;1.98;;;25.90;59.90;;;;;;6319297;28;20209;-70
2021/06/12 13:22:29;;;;;;;2.10;2.00;;;25.80;61.00;;;;;;6319423;28;20530;-70
2021/06/12 13:25:31;;;;;;;1.98;1.77;;;25.70;59.80;;;;;;6318988;28;20681;-70
2021/06/12 13:28:33;;;;;;;2.85;1.73;;;25.70;59.30;;;;;;6319362;28;20201;-70
2021/06/12 13:31:40;;;;;;;1.63;1.52;;;26.10;59.00;;;;;;6318090;28;20210;-71
2021/06/12 13:34:43;;;;;;;2.22;2.03;;;26.80;58.50;;;;;;6318059;28;20186;-71
2021/06/12 13:37:45;;;;;;;3.35;2.45;;;27.70;57.80;;;;;;6318181;28;20657;-71
2021/06/12 13:41:04;;;;;;;2.55;2.45;;;28.70;57.50;;;;;;6317486;28;20221;-71
2021/06/12 13:44:08;;;;;;;3.65;3.40;;;29.60;56.60;;;;;;6319157;28;20216;-71
2021/06/12 13:47:11;;;;;;;4.25;3.85;;;30.50;56.80;;;;;;6318902;28;20669;-71
2021/06/12 13:50:13;;;;;;;4.03;3.72;;;31.10;54.40;;;;;;6318732;28;20197;-71
2021/06/12 13:53:16;;;;;;;4.38;4.05;;;31.20;55.50;;;;;;6317700;28;20210;-71
2021/06/12 13:56:24;;;;;;;4.15;3.85;;;31.10;54.50;;;;;;6318652;28;20518;-71
2021/06/12 13:59:26;;;;;;;4.07;3.78;;;31.10;55.40;;;;;;6324268;28;21068;-71
2021/06/12 14:02:28;;;;;;;3.60;3.30;;;31.40;55.10;;;;;;6322045;28;20193;-71
2021/06/12 14:05:30;;;;;;;3.53;3.22;;;31.70;54.50;;;;;;6323762;28;20261;-71
2021/06/12 14:08:33;;;;;;;2.90;2.70;;;31.90;53.20;;;;;;6322579;28;20308;-71
2021/06/12 14:11:36;;;;;;;2.80;2.60;;;32.30;51.30;;;;;;6321382;28;20229;-71
2021/06/12 14:14:38;;;;;;;2.70;2.50;;;32.50;50.80;;;;;;6322142;28;20210;-71
2021/06/12 14:17:41;;;;;;;2.50;2.30;;;32.60;49.50;;;;;;6323127;28;20671;-71
2021/06/12 14:20:44;;;;;;;2.08;1.90;;;32.90;49.20;;;;;;6323264;28;20208;-71
2021/06/12 14:23:46;;;;;;;2.35;1.77;;;33.40;47.40;;;;;;6322154;28;20212;-71
2021/06/12 14:26:52;;;;;;;1.63;1.52;;;33.90;46.00;;;;;;6322763;28;20548;-71
2021/06/12 14:29:54;;;;;;;1.80;1.48;;;34.20;45.60;;;;;;6297113;28;20167;-71
2021/06/12 14:32:56;;;;;;;1.73;1.63;;;34.50;45.00;;;;;;6297286;28;20267;-71
2021/06/12 14:35:59;;;;;;;2.55;1.70;;;34.80;45.50;;;;;;6298061;28;20595;-71
2021/06/12 14:39:01;;;;;;;1.80;1.70;;;34.90;44.30;;;;;;6298208;28;20190;-71
2021/06/12 14:42:04;;;;;;;2.40;1.70;;;34.70;44.10;;;;;;6298993;28;20554;-71
2021/06/12 14:45:08;;;;;;;1.85;1.70;;;34.40;45.90;;;;;;6337879;28;20723;-71
2021/06/12 14:48:11;;;;;;;3.22;2.00;;;34.00;45.60;;;;;;6321006;28;20267;-71
2021/06/12 14:51:13;;;;;;;2.40;2.05;;;33.00;45.90;;;;;;6311819;28;20203;-71
2021/06/12 14:54:15;;;;;;;2.08;1.98;;;32.20;48.40;;;;;;6297004;28;20566;-71
2021/06/12 14:57:17;;;;;;;2.35;2.25;;;31.50;48.70;;;;;;6302728;28;20197;-71
2021/06/12 15:00:20;;;;;;;2.40;2.20;;;30.40;49.10;;;;;;6318304;28;20569;-71
2021/06/12 15:03:22;;;;;;;2.70;2.50;;;29.90;50.60;;;;;;6295269;28;20277;-71
2021/06/12 15:06:25;;;;;;;2.88;2.28;;;29.70;51.10;;;;;;6297326;28;20221;-71
2021/06/12 15:09:31;;;;;;;2.58;2.35;;;29.60;52.20;;;;;;6296419;28;20678;-71
2021/06/12 15:12:34;;;;;;;4.00;2.53;;;29.60;52.40;;;;;;6312325;28;20278;-71
2021/06/12 15:15:36;;;;;;;2.63;2.40;;;29.40;52.40;;;;;;6316877;28;20189;-71
2021/06/12 15:18:39;;;;;;;3.03;2.67;;;29.70;52.90;;;;;;6320296;28;20281;-71
2021/06/12 15:21:41;;;;;;;2.92;2.63;;;30.40;53.40;;;;;;6321873;28;20556;-71
2021/06/12 15:24:43;;;;;;;2.92;2.70;;;30.80;53.00;;;;;;6321361;28;20649;-71
2021/06/12 15:27:45;;;;;;;2.67;2.47;;;30.80;51.60;;;;;;6321662;28;20197;-71
2021/06/12 15:30:47;;;;;;;3.28;3.08;;;30.80;51.70;;;;;;6319822;28;20190;-71
2021/06/12 15:33:50;;;;;;;5.00;3.00;;;30.50;51.40;;;;;;6321547;28;20189;-71
2021/06/12 15:36:52;;;;;;;3.45;3.00;;;30.20;52.50;;;;;;6320227;28;20217;-71
2021/06/12 15:39:54;;;;;;;3.30;3.00;;;29.60;53.10;;;;;;6319464;28;20197;-71
2021/06/12 15:42:58;;;;;;;4.05;3.17;;;29.10;54.50;;;;;;6321320;28;20638;-71
2021/06/12 15:46:00;;;;;;;2.88;2.67;;;28.60;54.70;;;;;;6319621;28;20657;-71
2021/06/12 15:49:02;;;;;;;3.00;2.67;;;28.30;55.50;;;;;;6321254;28;20186;-71
2021/06/12 15:52:05;;;;;;;2.70;2.50;;;28.10;56.00;;;;;;6319780;28;20602;-71
2021/06/12 15:55:09;;;;;;;2.95;2.75;;;27.90;56.60;;;;;;6320813;28;20200;-71
2021/06/12 15:58:12;;;;;;;4.43;2.88;;;27.70;57.80;;;;;;6320883;28;20201;-71
2021/06/12 16:01:14;;;;;;;2.83;2.63;;;27.40;58.40;;;;;;6319106;28;20205;-71
2021/06/12 16:04:17;;;;;;;3.10;2.63;;;27.30;58.90;;;;;;6320956;28;20240;-71
2021/06/12 16:07:19;;;;;;;2.83;2.63;;;27.10;59.20;;;;;;6320719;28;20554;-71
2021/06/12 16:10:21;;;;;;;2.90;2.70;;;27.00;59.20;;;;;;6319993;28;20249;-71
2021/06/12 16:13:24;;;;;;;3.15;2.95;;;26.80;59.70;;;;;;6319819;28;20209;-70
2021/06/12 16:16:26;;;;;;;3.67;2.88;;;26.70;59.40;;;;;;6319294;28;20190;-70
2021/06/12 16:19:31;;;;;;;4.40;2.70;;;27.30;59.70;;;;;;6318682;28;20225;-70
2021/06/12 16:22:34;;;;;;;3.33;3.00;;;28.70;58.60;;;;;;6318773;28;20198;-70
2021/06/12 16:25:36;;;;;;;3.05;2.85;;;29.80;56.80;;;;;;6320519;28;20196;-70
2021/06/12 16:28:38;;;;;;;3.47;3.17;;;30.50;55.30;;;;;;6319219;28;20209;-70
2021/06/12 16:31:41;;;;;;;3.17;2.88;;;30.80;54.10;;;;;;6320208;28;20202;-70
2021/06/12 16:34:44;;;;;;;3.47;2.67;;;30.90;54.40;;;;;;6318969;28;20194;-71
2021/06/12 16:37:46;;;;;;;2.90;2.67;;;30.80;55.60;;;;;;6319834;28;20695;-71
2021/06/12 16:40:48;;;;;;;3.08;2.88;;;30.30;54.70;;;;;;6320228;28;20183;-71
2021/06/12 16:43:50;;;;;;;2.70;2.50;;;29.60;56.40;;;;;;6318737;28;20197;-71
2021/06/12 16:46:53;;;;;;;3.65;2.97;;;29.00;57.30;;;;;;6320030;28;20194;-71
2021/06/12 16:49:56;;;;;;;3.00;2.80;;;28.40;57.50;;;;;;6319956;28;20185;-71
2021/06/12 16:52:58;;;;;;;2.92;2.72;;;27.90;57.70;;;;;;6319348;28;20202;-71
2021/06/12 16:56:09;;;;;;;3.00;2.80;;;27.30;57.80;;;;;;6319804;28;20650;-71
2021/06/12 16:59:11;;;;;;;2.80;2.60;;;27.00;58.90;;;;;;6319724;28;20190;-71
2021/06/12 17:02:13;;;;;;;3.25;3.03;;;26.70;59.70;;;;;;6317926;28;20204;-71
2021/06/12 17:05:16;;;;;;;3.00;2.75;;;26.40;59.40;;;;;;6318240;28;20200;-71
2021/06/12 17:08:19;;;;;;;2.60;2.40;;;26.10;59.60;;;;;;6319357;28;20186;-71
2021/06/12 17:11:22;;;;;;;3.22;2.63;;;26.00;58.70;;;;;;6317964;28;20222;-71
2021/06/12 17:14:24;;;;;;;5.07;2.60;;;26.00;59.70;;;;;;6319085;28;20190;-71
2021/06/12 17:17:28;;;;;;;5.03;2.83;;;26.00;60.00;;;;;;6319683;28;20209;-71
2021/06/12 17:20:30;;;;;;;3.13;2.60;;;26.00;61.10;;;;;;6319268;28;20234;-71
2021/06/12 17:23:32;;;;;;;2.70;2.50;;;26.00;60.10;;;;;;6319030;28;20182;-71
2021/06/12 17:26:35;;;;;;;2.88;2.60;;;25.70;58.30;;;;;;6318177;28;20750;-70
2021/06/12 17:29:37;;;;;;;3.03;2.83;;;25.60;58.30;;;;;;6317572;28;20653;-70
2021/06/12 17:32:39;;;;;;;3.50;2.38;;;25.60;58.70;;;;;;6320118;28;20467;-70
2021/06/12 17:35:42;;;;;;;2.50;2.30;;;25.40;59.30;;;;;;6322775;28;20193;-70
2021/06/12 17:38:44;;;;;;;3.63;2.53;;;25.20;59.00;;;;;;6324107;28;20281;-70
2021/06/12 17:41:47;;;;;;;2.40;2.20;;;25.20;59.80;;;;;;6322180;28;20220;-70
2021/06/12 17:44:49;;;;;;;2.83;2.63;;;25.10;60.80;;;;;;6317850;28;20195;-70
2021/06/12 17:47:51;;;;;;;2.72;2.53;;;25.10;61.90;;;;;;6298956;28;20198;-70
2021/06/12 17:50:54;;;;;;;3.22;2.50;;;25.00;62.70;;;;;;6314313;28;20728;-71
2021/06/12 17:53:56;;;;;;;3.30;2.40;;;24.90;64.10;;;;;;6298414;28;20229;-71
2021/06/12 17:56:59;;;;;;;2.53;2.35;;;24.80;65.80;;;;;;6299858;28;20202;-71
2021/06/12 18:00:02;;;;;;;2.70;2.50;;;24.70;65.60;;;;;;6322601;28;20190;-70
2021/06/12 18:03:13;;;;;;;4.93;2.80;;;24.60;65.20;;;;;;6323582;28;20211;-70
2021/06/12 18:06:16;;;;;;;3.15;2.80;;;24.40;62.70;;;;;;6323529;28;20717;-70
2021/06/12 18:09:18;;;;;;;3.20;2.90;;;24.40;63.90;;;;;;6323747;28;20898;-70
2021/06/12 18:12:20;;;;;;;3.28;2.85;;;24.40;62.40;;;;;;6323295;28;20233;-70
2021/06/12 18:15:22;;;;;;;3.00;2.80;;;24.30;62.30;;;;;;6323159;28;20290;-70
2021/06/12 18:18:24;;;;;;;4.43;2.60;;;24.20;63.00;;;;;;6323281;28;20198;-70
2021/06/12 18:21:27;;;;;;;3.93;2.67;;;24.20;64.10;;;;;;6322952;28;20549;-70
2021/06/12 18:24:29;;;;;;;3.30;2.80;;;24.10;64.00;;;;;;6323323;28;20178;-70
2021/06/12 18:27:31;;;;;;;3.23;2.93;;;24.00;64.10;;;;;;6323095;28;20198;-70
2021/06/12 18:30:34;;;;;;;3.27;3.07;;;24.00;64.70;;;;;;6321385;28;20186;-70
2021/06/12 18:33:36;;;;;;;3.40;3.10;;;23.90;66.50;;;;;;6322834;28;20531;-70
2021/06/12 18:36:40;;;;;;;4.90;3.13;;;23.80;64.90;;;;;;6323123;28;20568;-70
2021/06/12 18:39:42;;;;;;;3.53;2.73;;;23.80;64.60;;;;;;6323105;28;20582;-70
2021/06/12 18:42:45;;;;;;;3.27;2.97;;;23.70;66.40;;;;;;6321325;28;20194;-70
2021/06/12 18:45:50;;;;;;;5.90;3.10;;;23.60;67.80;;;;;;6304621;28;20570;-70
2021/06/12 18:48:52;;;;;;;4.47;3.73;;;23.50;69.10;;;;;;6321771;28;20629;-70
2021/06/12 18:51:55;;;;;;;3.43;3.13;;;23.30;70.10;;;;;;6321095;28;20202;-70
2021/06/12 18:54:57;;;;;;;3.67;3.37;;;23.10;68.80;;;;;;6321537;28;20194;-70
2021/06/12 18:57:59;;;;;;;3.67;3.33;;;23.10;68.80;;;;;;6320944;28;20281;-70
2021/06/12 19:01:03;;;;;;;6.03;3.80;;;23.10;69.10;;;;;;6321138;28;20591;-70
2021/06/12 19:04:06;;;;;;;3.20;3.00;;;23.10;70.10;;;;;;6321252;28;20202;-70
2021/06/12 19:07:08;;;;;;;3.83;3.47;;;23.00;70.20;;;;;;6321207;28;20825;-70
2021/06/12 19:10:13;;;;;;;3.53;3.13;;;23.00;69.60;;;;;;6322563;28;20226;-70
2021/06/12 19:13:15;;;;;;;2.90;2.70;;;22.90;69.80;;;;;;6321711;28;20289;-70
2021/06/12 19:16:18;;;;;;;3.60;3.30;;;23.00;70.00;;;;;;6321117;28;20690;-70
2021/06/12 19:19:20;;;;;;;3.60;3.30;;;23.00;69.60;;;;;;6322295;28;20189;-70
2021/06/12 19:22:26;;;;;;;3.53;3.23;;;23.10;70.00;;;;;;6321579;28;20175;-70
2021/06/12 19:25:28;;;;;;;3.70;3.40;;;23.10;70.50;;;;;;6322061;28;20250;-70
2021/06/12 19:28:31;;;;;;;4.30;3.90;;;23.00;71.30;;;;;;6322286;28;20273;-70
2021/06/12 19:31:33;;;;;;;5.43;3.50;;;23.00;72.10;;;;;;6321750;28;20559;-70
2021/06/12 19:34:36;;;;;;;3.67;3.37;;;22.90;71.80;;;;;;6321823;28;20654;-70
2021/06/12 19:40:57;;;;;;;3.53;3.23;;;22.90;73.10;;;;;;6321712;28;20598;-70
2021/06/12 19:43:59;;;;;;;3.10;2.90;;;22.80;74.50;;;;;;6320090;28;20310;-70
2021/06/12 19:47:02;;;;;;;3.87;3.30;;;22.80;76.30;;;;;;6321384;28;20562;-70
2021/06/12 19:50:06;;;;;;;4.10;3.40;;;22.70;77.00;;;;;;6321415;28;20193;-70
2021/06/12 19:53:09;;;;;;;3.30;3.10;;;22.60;78.40;;;;;;6321672;28;20902;-70
2021/06/12 19:56:12;;;;;;;3.33;3.03;;;22.60;78.80;;;;;;6320552;28;20664;-70
2021/06/12 19:59:17;;;;;;;3.60;3.10;;;22.50;80.90;;;;;;6320894;28;20190;-70
2021/06/12 20:02:19;;;;;;;3.57;3.27;;;22.30;79.10;;;;;;6320179;28;20721;-70
2021/06/12 20:05:22;;;;;;;4.23;3.30;;;22.30;78.70;;;;;;6320867;28;20194;-70
2021/06/12 20:08:25;;;;;;;3.40;3.10;;;22.30;78.80;;;;;;6321043;28;20213;-70
2021/06/12 20:11:27;;;;;;;4.77;3.03;;;22.30;79.90;;;;;;6320768;28;20226;-70
2021/06/12 20:14:32;;;;;;;3.50;3.20;;;22.30;82.20;;;;;;6320336;28;20194;-70
2021/06/12 20:17:35;;;;;;;3.57;3.27;;;22.20;83.00;;;;;;6320890;28;20194;-70
2021/06/12 20:20:37;;;;;;;3.53;3.23;;;22.10;84.10;;;;;;6319316;28;20189;-70
2021/06/12 20:23:39;;;;;;;2.90;2.70;;;22.00;84.90;;;;;;6320611;28;20201;-70
2021/06/12 20:26:42;;;;;;;3.60;3.30;;;22.00;85.30;;;;;;6320427;28;20196;-70
2021/06/12 20:29:45;;;;;;;3.70;2.93;;;21.90;84.10;;;;;;6319212;28;20193;-70
2021/06/12 20:32:47;;;;;;;3.57;3.27;;;22.00;84.50;;;;;;6319165;28;20210;-70
2021/06/12 20:35:49;;;;;;;3.67;3.37;;;22.00;84.20;;;;;;6319523;28;20507;-70
2021/06/12 20:38:52;;;;;;;4.03;3.70;;;22.00;85.30;;;;;;6319754;28;20227;-70
2021/06/12 20:41:54;;;;;;;4.17;3.60;;;22.00;87.10;;;;;;6320052;28;20186;-71
2021/06/12 20:44:57;;;;;;;10.00;4.83;;;21.90;89.00;;;;;;6320205;28;20211;-67
2021/06/12 20:47:59;;;;;;;10.60;5.47;;;21.70;95.00;;;;;;6320264;28;20193;-67
2021/06/12 20:51:01;;;;;;;7.13;5.43;;;21.30;99.90;;;;;;6319775;28;20531;-68
2021/06/12 20:54:05;;;;;;;10.10;5.67;;;20.90;99.90;;;;;;6318871;28;20232;-68
2021/06/12 20:57:08;;;;;;;7.83;5.50;;;20.60;99.90;;;;;;6319524;28;20193;-68
2021/06/12 21:00:14;;;;;;;6.10;5.47;;;20.30;99.90;;;;;;6320213;28;20167;-68
2021/06/12 21:03:16;;;;;;;6.43;4.87;;;20.10;99.90;;;;;;6318741;28;20204;-68
2021/06/12 21:06:18;;;;;;;5.60;4.97;;;19.80;99.90;;;;;;6318303;28;20190;-68
2021/06/12 21:09:21;;;;;;;8.73;5.67;;;19.70;99.90;;;;;;6320074;28;20185;-68
2021/06/12 21:12:23;;;;;;;5.63;4.87;;;19.60;99.90;;;;;;6317820;28;20233;-68
2021/06/12 21:15:29;;;;;;;8.90;5.43;;;19.60;99.90;;;;;;6318980;28;20279;-68
2021/06/12 21:18:31;;;;;;;5.17;4.63;;;19.60;99.90;;;;;;6319512;28;20687;-68
2021/06/12 21:21:34;;;;;;;6.70;5.67;;;19.50;99.90;;;;;;6319711;28;20182;-69
2021/06/12 21:24:36;;;;;;;7.93;5.97;;;19.40;99.90;;;;;;6318718;28;20193;-69
2021/06/12 21:27:40;;;;;;;8.17;6.13;;;19.20;99.90;;;;;;6319145;28;20292;-69
2021/06/12 21:30:42;;;;;;;8.03;5.67;;;19.10;99.90;;;;;;6319773;28;20186;-69
2021/06/12 21:33:45;;;;;;;7.33;5.70;;;18.90;99.90;;;;;;6317903;28;20209;-69
2021/06/12 21:36:47;;;;;;;7.97;5.27;;;18.80;99.90;;;;;;6318399;28;20570;-69
2021/06/12 21:39:49;;;;;;;7.67;6.03;;;18.80;99.90;;;;;;6319761;28;20200;-69
2021/06/12 21:42:52;;;;;;;7.50;6.57;;;18.70;99.90;;;;;;6318863;28;20198;-69
2021/06/12 21:45:54;;;;;;;6.30;5.70;;;18.60;99.90;;;;;;6318747;28;20202;-69
2021/06/12 21:48:57;;;;;;;6.27;5.77;;;18.60;99.90;;;;;;6319139;28;20637;-69
2021/06/12 21:51:59;;;;;;;6.20;5.70;;;18.50;99.90;;;;;;6319474;28;20190;-69
2021/06/12 21:55:02;;;;;;;4.80;4.40;;;18.60;99.90;;;;;;6318191;28;20214;-69
2021/06/12 21:58:05;;;;;;;6.17;5.60;;;18.60;99.90;;;;;;6318917;28;20194;-69
2021/06/12 22:01:10;;;;;;;5.63;5.13;;;18.60;99.90;;;;;;6319450;28;20192;-69
2021/06/12 22:04:13;;;;;;;5.23;4.77;;;18.60;99.90;;;;;;6318639;28;20299;-70
2021/06/12 22:07:15;;;;;;;6.17;5.57;;;18.60;99.90;;;;;;6319569;28;20197;-69
2021/06/12 22:10:18;;;;;;;5.53;5.03;;;18.50;99.90;;;;;;6317440;28;20233;-69
2021/06/12 22:13:21;;;;;;;5.70;5.20;;;18.40;99.90;;;;;;6319182;28;20547;-69
2021/06/12 22:16:23;;;;;;;6.10;5.60;;;18.30;99.90;;;;;;6319379;28;20183;-69
2021/06/12 22:19:28;;;;;;;6.40;5.90;;;18.30;99.90;;;;;;6320710;28;20207;-69
2021/06/12 22:22:31;;;;;;;5.80;5.17;;;18.20;99.90;;;;;;6322353;28;20583;-69
2021/06/12 22:25:34;;;;;;;6.10;5.23;;;18.20;99.90;;;;;;6321918;28;20182;-69
2021/06/12 22:28:37;;;;;;;5.70;4.77;;;18.30;99.90;;;;;;6322348;28;20651;-69
2021/06/12 22:31:40;;;;;;;5.97;4.47;;;18.30;99.90;;;;;;6322157;28;20226;-69
2021/06/12 22:34:42;;;;;;;7.10;4.80;;;18.40;99.90;;;;;;6321616;28;20216;-68
2021/06/12 22:37:45;;;;;;;6.23;5.40;;;18.30;99.90;;;;;;6321974;28;20239;-68
2021/06/12 22:40:47;;;;;;;5.07;4.57;;;18.40;99.90;;;;;;6322940;28;20186;-68
2021/06/12 22:43:49;;;;;;;5.07;4.67;;;18.30;99.90;;;;;;6323453;28;20672;-68
2021/06/12 22:46:52;;;;;;;4.90;4.40;;;18.30;99.90;;;;;;6321932;28;20653;-68
2021/06/12 22:49:54;;;;;;;5.80;5.20;;;18.30;99.90;;;;;;6322728;28;20248;-68
2021/06/12 22:52:56;;;;;;;4.90;4.50;;;18.30;99.90;;;;;;6321322;28;20242;-68
2021/06/12 22:55:59;;;;;;;5.40;4.90;;;18.20;99.90;;;;;;6321213;28;20194;-69
2021/06/12 22:59:02;;;;;;;4.97;4.47;;;18.20;99.90;;;;;;6322813;28;20597;-69
2021/06/12 23:02:04;;;;;;;5.70;5.10;;;18.20;99.90;;;;;;6321040;28;20197;-69
2021/06/12 23:05:07;;;;;;;5.90;5.40;;;18.20;99.90;;;;;;6322707;28;20540;-69
2021/06/12 23:08:10;;;;;;;5.17;4.67;;;18.10;99.90;;;;;;6322406;28;20721;-69
2021/06/12 23:11:12;;;;;;;8.00;5.00;;;18.10;99.90;;;;;;6320817;28;20236;-69
2021/06/12 23:14:14;;;;;;;5.70;5.20;;;18.00;99.90;;;;;;6322362;28;20210;-69
2021/06/12 23:17:17;;;;;;;5.37;4.97;;;18.00;99.90;;;;;;6321056;28;20190;-69
2021/06/12 23:20:19;;;;;;;7.53;5.50;;;18.00;99.90;;;;;;6320887;28;20193;-69
2021/06/12 23:23:22;;;;;;;5.87;5.27;;;18.00;99.90;;;;;;6322125;28;20193;-69
2021/06/12 23:26:24;;;;;;;5.80;5.23;;;18.00;99.90;;;;;;6320527;28;20198;-69
2021/06/12 23:29:27;;;;;;;5.00;4.50;;;18.00;99.90;;;;;;6320726;28;20206;-69
2021/06/12 23:32:29;;;;;;;5.63;5.00;;;18.00;99.90;;;;;;6321462;28;20557;-69
2021/06/12 23:35:31;;;;;;;6.20;5.60;;;17.90;99.90;;;;;;6320372;28;20306;-69
2021/06/12 23:38:33;;;;;;;6.53;5.50;;;17.90;99.90;;;;;;6321790;28;20182;-69
2021/06/12 23:41:36;;;;;;;5.70;5.20;;;17.90;99.90;;;;;;6319941;28;20766;-69
2021/06/12 23:44:38;;;;;;;6.43;5.43;;;17.80;99.90;;;;;;6321689;28;20189;-69
2021/06/12 23:47:41;;;;;;;5.73;5.23;;;17.80;99.90;;;;;;6321250;28;20668;-69
2021/06/12 23:50:43;;;;;;;5.73;5.23;;;17.70;99.90;;;;;;6320154;28;20194;-69
2021/06/12 23:53:48;;;;;;;4.80;4.43;;;17.70;99.90;;;;;;6321301;28;20735;-68
2021/06/12 23:56:50;;;;;;;5.70;5.17;;;17.70;99.90;;;;;;6321704;28;20181;-68
2021/06/12 23:59:53;;;;;;;6.63;6.03;;;17.70;99.90;;;;;;6294888;28;20419;-68
